sensor_id;sensor_type;location;lat;lon;timestamp;P1;durP1;ratioP1;P2;durP2;ratioP2
51020;SDS011;38907;45.562;8.856;2022-08-26T00:04:07;3.83;;;3.50;;
51020;SDS011;38907;45.562;8.856;2022-08-26T00:09:10;6.07;;;3.35;;
51020;SDS011;38907;45.562;8.856;2022-08-26T00:14:13;4.35;;;3.63;;
51020;SDS011;38907;45.562;8.856;2022-08-26T00:19:18;5.68;;;3.40;;
51020;SDS011;38907;45.562;8.856;2022-08-26T00:24:23;5.70;;;3.63;;
51020;SDS011;38907;45.562;8.856;2022-08-26T00:29:25;6.43;;;3.42;;
51020;SDS011;38907;45.562;8.856;2022-08-26T00:34:31;4.97;;;3.80;;
51020;SDS011;38907;45.562;8.856;2022-08-26T00:39:33;6.95;;;3.72;;
51020;SDS011;38907;45.562;8.856;2022-08-26T00:44:36;4.85;;;4.03;;
51020;SDS011;38907;45.562;8.856;2022-08-26T00:49:41;9.63;;;4.15;;
51020;SDS011;38907;45.562;8.856;2022-08-26T00:54:48;7.30;;;3.47;;
51020;SDS011;38907;45.562;8.856;2022-08-26T00:59:57;6.00;;;3.97;;
51020;SDS011;38907;45.562;8.856;2022-08-26T01:05:04;6.68;;;3.58;;
51020;SDS011;38907;45.562;8.856;2022-08-26T01:10:10;8.63;;;3.78;;
51020;SDS011;38907;45.562;8.856;2022-08-26T01:15:16;4.70;;;3.90;;
51020;SDS011;38907;45.562;8.856;2022-08-26T01:20:27;6.18;;;3.70;;
51020;SDS011;38907;45.562;8.856;2022-08-26T01:25:38;5.90;;;4.28;;
51020;SDS011;38907;45.562;8.856;2022-08-26T01:30:43;6.55;;;4.55;;
51020;SDS011;38907;45.562;8.856;2022-08-26T01:35:47;6.63;;;4.00;;
51020;SDS011;38907;45.562;8.856;2022-08-26T01:40:52;4.75;;;3.60;;
51020;SDS011;38907;45.562;8.856;2022-08-26T01:45:55;7.05;;;3.63;;
51020;SDS011;38907;45.562;8.856;2022-08-26T01:50:58;11.32;;;3.78;;
51020;SDS011;38907;45.562;8.856;2022-08-26T01:56:05;7.60;;;4.18;;
51020;SDS011;38907;45.562;8.856;2022-08-26T02:01:10;6.95;;;3.58;;
51020;SDS011;38907;45.562;8.856;2022-08-26T02:06:13;13.27;;;4.03;;
51020;SDS011;38907;45.562;8.856;2022-08-26T02:11:17;8.02;;;4.05;;
51020;SDS011;38907;45.562;8.856;2022-08-26T02:16:21;10.02;;;3.83;;
51020;SDS011;38907;45.562;8.856;2022-08-26T02:21:26;7.68;;;4.00;;
51020;SDS011;38907;45.562;8.856;2022-08-26T02:26:31;4.90;;;3.90;;
51020;SDS011;38907;45.562;8.856;2022-08-26T02:31:34;7.20;;;4.25;;
51020;SDS011;38907;45.562;8.856;2022-08-26T02:36:37;8.77;;;4.57;;
51020;SDS011;38907;45.562;8.856;2022-08-26T02:41:41;6.00;;;5.03;;
51020;SDS011;38907;45.562;8.856;2022-08-26T02:46:44;7.63;;;4.78;;
51020;SDS011;38907;45.562;8.856;2022-08-26T02:51:47;9.68;;;4.65;;
51020;SDS011;38907;45.562;8.856;2022-08-26T02:56:51;9.10;;;4.30;;
51020;SDS011;38907;45.562;8.856;2022-08-26T03:01:54;6.60;;;3.85;;
51020;SDS011;38907;45.562;8.856;2022-08-26T03:06:57;5.60;;;4.03;;
51020;SDS011;38907;45.562;8.856;2022-08-26T03:12:02;6.00;;;4.20;;
51020;SDS011;38907;45.562;8.856;2022-08-26T03:17:05;9.63;;;4.63;;
51020;SDS011;38907;45.562;8.856;2022-08-26T03:22:07;5.88;;;4.32;;
51020;SDS011;38907;45.562;8.856;2022-08-26T03:27:11;5.88;;;3.35;;
51020;SDS011;38907;45.562;8.856;2022-08-26T03:32:14;5.03;;;3.70;;
51020;SDS011;38907;45.562;8.856;2022-08-26T03:37:17;7.22;;;3.70;;
51020;SDS011;38907;45.562;8.856;2022-08-26T03:42:22;4.47;;;3.58;;
51020;SDS011;38907;45.562;8.856;2022-08-26T03:47:24;11.15;;;3.92;;
51020;SDS011;38907;45.562;8.856;2022-08-26T03:52:29;4.18;;;3.30;;
51020;SDS011;38907;45.562;8.856;2022-08-26T03:57:33;7.22;;;3.58;;
51020;SDS011;38907;45.562;8.856;2022-08-26T04:02:36;4.00;;;3.53;;
51020;SDS011;38907;45.562;8.856;2022-08-26T04:07:38;10.73;;;3.90;;
51020;SDS011;38907;45.562;8.856;2022-08-26T04:12:43;10.20;;;3.65;;
51020;SDS011;38907;45.562;8.856;2022-08-26T04:17:45;9.68;;;3.70;;
51020;SDS011;38907;45.562;8.856;2022-08-26T04:27:52;5.85;;;3.92;;
51020;SDS011;38907;45.562;8.856;2022-08-26T04:32:54;4.13;;;3.38;;
51020;SDS011;38907;45.562;8.856;2022-08-26T04:37:57;4.32;;;3.33;;
51020;SDS011;38907;45.562;8.856;2022-08-26T04:48:04;5.18;;;3.53;;
51020;SDS011;38907;45.562;8.856;2022-08-26T04:53:08;7.65;;;3.45;;
51020;SDS011;38907;45.562;8.856;2022-08-26T04:58:14;6.00;;;3.53;;
51020;SDS011;38907;45.562;8.856;2022-08-26T05:03:17;5.72;;;3.20;;
51020;SDS011;38907;45.562;8.856;2022-08-26T05:08:20;5.97;;;3.42;;
51020;SDS011;38907;45.562;8.856;2022-08-26T05:13:25;5.38;;;3.05;;
51020;SDS011;38907;45.562;8.856;2022-08-26T05:18:28;4.10;;;3.42;;
51020;SDS011;38907;45.562;8.856;2022-08-26T05:23:33;5.35;;;3.20;;
51020;SDS011;38907;45.562;8.856;2022-08-26T05:28:38;3.85;;;2.85;;
51020;SDS011;38907;45.562;8.856;2022-08-26T05:33:41;8.98;;;3.10;;
51020;SDS011;38907;45.562;8.856;2022-08-26T05:38:44;5.43;;;3.03;;
51020;SDS011;38907;45.562;8.856;2022-08-26T05:43:48;8.52;;;3.00;;
51020;SDS011;38907;45.562;8.856;2022-08-26T05:48:51;5.18;;;2.83;;
51020;SDS011;38907;45.562;8.856;2022-08-26T05:53:54;3.55;;;2.97;;
51020;SDS011;38907;45.562;8.856;2022-08-26T05:58:58;10.48;;;3.22;;
51020;SDS011;38907;45.562;8.856;2022-08-26T06:04:02;3.05;;;2.72;;
51020;SDS011;38907;45.562;8.856;2022-08-26T06:09:04;4.10;;;2.92;;
51020;SDS011;38907;45.562;8.856;2022-08-26T06:14:11;4.72;;;2.97;;
51020;SDS011;38907;45.562;8.856;2022-08-26T06:19:13;4.90;;;2.75;;
51020;SDS011;38907;45.562;8.856;2022-08-26T06:24:16;4.07;;;2.97;;
51020;SDS011;38907;45.562;8.856;2022-08-26T06:29:37;5.85;;;2.97;;
51020;SDS011;38907;45.562;8.856;2022-08-26T06:34:41;6.80;;;3.10;;
51020;SDS011;38907;45.562;8.856;2022-08-26T06:39:44;2.95;;;2.38;;
51020;SDS011;38907;45.562;8.856;2022-08-26T06:44:48;6.47;;;2.78;;
51020;SDS011;38907;45.562;8.856;2022-08-26T06:49:51;5.90;;;2.60;;
51020;SDS011;38907;45.562;8.856;2022-08-26T06:54:53;3.90;;;2.85;;
51020;SDS011;38907;45.562;8.856;2022-08-26T06:59:58;4.43;;;3.00;;
51020;SDS011;38907;45.562;8.856;2022-08-26T07:05:00;7.70;;;3.15;;
51020;SDS011;38907;45.562;8.856;2022-08-26T07:10:05;6.03;;;2.90;;
51020;SDS011;38907;45.562;8.856;2022-08-26T07:15:10;4.47;;;3.03;;
51020;SDS011;38907;45.562;8.856;2022-08-26T07:20:15;5.95;;;3.28;;
51020;SDS011;38907;45.562;8.856;2022-08-26T07:25:18;19.27;;;3.70;;
51020;SDS011;38907;45.562;8.856;2022-08-26T07:30:22;10.82;;;3.50;;
51020;SDS011;38907;45.562;8.856;2022-08-26T07:35:28;7.15;;;3.30;;
51020;SDS011;38907;45.562;8.856;2022-08-26T07:40:30;8.55;;;3.22;;
51020;SDS011;38907;45.562;8.856;2022-08-26T07:45:36;5.03;;;3.17;;
51020;SDS011;38907;45.562;8.856;2022-08-26T07:50:39;7.05;;;3.13;;
51020;SDS011;38907;45.562;8.856;2022-08-26T07:55:42;7.53;;;4.13;;
51020;SDS011;38907;45.562;8.856;2022-08-26T08:00:48;5.13;;;3.47;;
51020;SDS011;38907;45.562;8.856;2022-08-26T08:05:51;9.68;;;4.43;;
51020;SDS011;38907;45.562;8.856;2022-08-26T08:10:54;5.43;;;4.28;;
51020;SDS011;38907;45.562;8.856;2022-08-26T08:15:59;6.65;;;3.47;;
51020;SDS011;38907;45.562;8.856;2022-08-26T08:21:01;4.78;;;4.15;;
51020;SDS011;38907;45.562;8.856;2022-08-26T08:26:05;10.38;;;5.10;;
51020;SDS011;38907;45.562;8.856;2022-08-26T08:31:16;6.70;;;3.90;;
51020;SDS011;38907;45.562;8.856;2022-08-26T08:36:22;14.48;;;4.63;;
51020;SDS011;38907;45.562;8.856;2022-08-26T08:41:28;8.52;;;4.38;;
51020;SDS011;38907;45.562;8.856;2022-08-26T08:46:41;6.45;;;3.92;;
51020;SDS011;38907;45.562;8.856;2022-08-26T08:51:49;7.70;;;4.25;;
51020;SDS011;38907;45.562;8.856;2022-08-26T08:56:58;7.90;;;4.75;;
51020;SDS011;38907;45.562;8.856;2022-08-26T09:02:09;5.65;;;4.60;;
51020;SDS011;38907;45.562;8.856;2022-08-26T09:07:21;9.98;;;4.95;;
51020;SDS011;38907;45.562;8.856;2022-08-26T09:12:28;7.78;;;4.55;;
51020;SDS011;38907;45.562;8.856;2022-08-26T09:17:37;7.43;;;5.10;;
51020;SDS011;38907;45.562;8.856;2022-08-26T09:22:48;11.75;;;5.10;;
51020;SDS011;38907;45.562;8.856;2022-08-26T09:27:51;7.68;;;5.07;;
51020;SDS011;38907;45.562;8.856;2022-08-26T09:33:00;7.80;;;4.70;;
51020;SDS011;38907;45.562;8.856;2022-08-26T09:38:19;11.43;;;5.15;;
51020;SDS011;38907;45.562;8.856;2022-08-26T09:43:23;9.60;;;4.90;;
51020;SDS011;38907;45.562;8.856;2022-08-26T09:48:30;11.10;;;5.63;;
51020;SDS011;38907;45.562;8.856;2022-08-26T09:53:34;12.15;;;5.43;;
51020;SDS011;38907;45.562;8.856;2022-08-26T09:58:50;6.63;;;6.00;;
51020;SDS011;38907;45.562;8.856;2022-08-26T10:03:57;8.93;;;6.28;;
51020;SDS011;38907;45.562;8.856;2022-08-26T10:09:06;12.43;;;6.30;;
51020;SDS011;38907;45.562;8.856;2022-08-26T10:14:12;11.18;;;7.30;;
51020;SDS011;38907;45.562;8.856;2022-08-26T10:19:21;11.35;;;7.57;;
51020;SDS011;38907;45.562;8.856;2022-08-26T10:24:29;7.63;;;6.05;;
51020;SDS011;38907;45.562;8.856;2022-08-26T10:29:39;11.25;;;6.03;;
51020;SDS011;38907;45.562;8.856;2022-08-26T10:34:48;13.43;;;6.75;;
51020;SDS011;38907;45.562;8.856;2022-08-26T10:39:53;11.30;;;6.35;;
51020;SDS011;38907;45.562;8.856;2022-08-26T10:45:01;10.73;;;5.82;;
51020;SDS011;38907;45.562;8.856;2022-08-26T10:50:09;7.65;;;6.25;;
51020;SDS011;38907;45.562;8.856;2022-08-26T10:55:13;14.25;;;5.70;;
51020;SDS011;38907;45.562;8.856;2022-08-26T11:00:21;11.82;;;6.50;;
51020;SDS011;38907;45.562;8.856;2022-08-26T11:11:47;10.93;;;6.07;;
51020;SDS011;38907;45.562;8.856;2022-08-26T11:16:51;8.05;;;5.18;;
51020;SDS011;38907;45.562;8.856;2022-08-26T11:22:04;7.10;;;5.43;;
51020;SDS011;38907;45.562;8.856;2022-08-26T11:27:49;10.70;;;4.57;;
51020;SDS011;38907;45.562;8.856;2022-08-26T11:33:06;10.20;;;5.70;;
51020;SDS011;38907;45.562;8.856;2022-08-26T11:38:14;8.43;;;5.47;;
51020;SDS011;38907;45.562;8.856;2022-08-26T11:43:23;8.27;;;5.13;;
51020;SDS011;38907;45.562;8.856;2022-08-26T11:48:28;8.52;;;5.20;;
51020;SDS011;38907;45.562;8.856;2022-08-26T11:53:35;8.10;;;5.45;;
51020;SDS011;38907;45.562;8.856;2022-08-26T11:58:40;10.15;;;5.05;;
51020;SDS011;38907;45.562;8.856;2022-08-26T12:03:45;9.05;;;4.60;;
51020;SDS011;38907;45.562;8.856;2022-08-26T12:08:51;6.93;;;4.05;;
51020;SDS011;38907;45.562;8.856;2022-08-26T12:13:56;10.20;;;4.93;;
51020;SDS011;38907;45.562;8.856;2022-08-26T12:19:00;6.60;;;4.20;;
51020;SDS011;38907;45.562;8.856;2022-08-26T12:24:23;17.20;;;4.13;;
51020;SDS011;38907;45.562;8.856;2022-08-26T12:29:26;8.38;;;5.10;;
51020;SDS011;38907;45.562;8.856;2022-08-26T12:34:29;12.10;;;3.80;;
51020;SDS011;38907;45.562;8.856;2022-08-26T12:39:34;8.05;;;4.05;;
51020;SDS011;38907;45.562;8.856;2022-08-26T12:44:42;6.60;;;4.53;;
51020;SDS011;38907;45.562;8.856;2022-08-26T12:49:47;6.10;;;4.60;;
51020;SDS011;38907;45.562;8.856;2022-08-26T12:55:02;5.60;;;4.75;;
51020;SDS011;38907;45.562;8.856;2022-08-26T13:05:44;7.55;;;4.10;;
51020;SDS011;38907;45.562;8.856;2022-08-26T13:10:59;6.07;;;3.97;;
51020;SDS011;38907;45.562;8.856;2022-08-26T13:16:04;6.43;;;4.50;;
51020;SDS011;38907;45.562;8.856;2022-08-26T13:21:09;7.05;;;3.95;;
51020;SDS011;38907;45.562;8.856;2022-08-26T13:26:15;6.13;;;3.80;;
51020;SDS011;38907;45.562;8.856;2022-08-26T13:31:18;6.95;;;3.85;;
51020;SDS011;38907;45.562;8.856;2022-08-26T13:36:21;4.40;;;3.72;;
51020;SDS011;38907;45.562;8.856;2022-08-26T13:41:25;6.63;;;4.30;;
51020;SDS011;38907;45.562;8.856;2022-08-26T13:46:28;6.00;;;4.13;;
51020;SDS011;38907;45.562;8.856;2022-08-26T13:51:31;5.78;;;4.38;;
51020;SDS011;38907;45.562;8.856;2022-08-26T13:56:35;5.55;;;4.82;;
51020;SDS011;38907;45.562;8.856;2022-08-26T14:01:38;9.73;;;4.97;;
51020;SDS011;38907;45.562;8.856;2022-08-26T14:06:41;7.35;;;4.25;;
51020;SDS011;38907;45.562;8.856;2022-08-26T14:11:45;8.40;;;4.70;;
51020;SDS011;38907;45.562;8.856;2022-08-26T14:16:48;4.53;;;4.10;;
51020;SDS011;38907;45.562;8.856;2022-08-26T14:21:50;7.63;;;4.13;;
51020;SDS011;38907;45.562;8.856;2022-08-26T14:26:55;4.95;;;3.00;;
51020;SDS011;38907;45.562;8.856;2022-08-26T14:32:05;6.30;;;2.65;;
51020;SDS011;38907;45.562;8.856;2022-08-26T14:37:13;3.42;;;2.33;;
51020;SDS011;38907;45.562;8.856;2022-08-26T14:42:18;3.20;;;1.95;;
51020;SDS011;38907;45.562;8.856;2022-08-26T14:47:22;2.15;;;1.95;;
51020;SDS011;38907;45.562;8.856;2022-08-26T14:52:25;4.10;;;2.30;;
51020;SDS011;38907;45.562;8.856;2022-08-26T14:57:30;4.93;;;2.15;;
51020;SDS011;38907;45.562;8.856;2022-08-26T15:02:33;2.45;;;1.70;;
51020;SDS011;38907;45.562;8.856;2022-08-26T15:07:36;3.90;;;1.92;;
51020;SDS011;38907;45.562;8.856;2022-08-26T15:12:41;5.70;;;1.90;;
51020;SDS011;38907;45.562;8.856;2022-08-26T15:17:44;7.18;;;1.98;;
51020;SDS011;38907;45.562;8.856;2022-08-26T15:22:47;2.67;;;1.50;;
51020;SDS011;38907;45.562;8.856;2022-08-26T15:27:51;5.10;;;1.70;;
51020;SDS011;38907;45.562;8.856;2022-08-26T15:32:54;5.25;;;2.05;;
51020;SDS011;38907;45.562;8.856;2022-08-26T15:37:56;2.75;;;1.60;;
51020;SDS011;38907;45.562;8.856;2022-08-26T15:43:00;5.47;;;1.60;;
51020;SDS011;38907;45.562;8.856;2022-08-26T15:48:04;3.55;;;1.60;;
51020;SDS011;38907;45.562;8.856;2022-08-26T15:53:07;3.35;;;2.28;;
51020;SDS011;38907;45.562;8.856;2022-08-26T15:58:11;4.15;;;1.70;;
51020;SDS011;38907;45.562;8.856;2022-08-26T16:03:14;1.73;;;1.50;;
51020;SDS011;38907;45.562;8.856;2022-08-26T16:08:16;2.65;;;1.25;;
51020;SDS011;38907;45.562;8.856;2022-08-26T16:13:21;3.03;;;1.35;;
51020;SDS011;38907;45.562;8.856;2022-08-26T16:18:23;2.53;;;1.60;;
51020;SDS011;38907;45.562;8.856;2022-08-26T16:23:26;2.65;;;1.50;;
51020;SDS011;38907;45.562;8.856;2022-08-26T16:28:32;1.70;;;1.60;;
51020;SDS011;38907;45.562;8.856;2022-08-26T16:33:35;4.65;;;1.73;;
51020;SDS011;38907;45.562;8.856;2022-08-26T16:38:38;2.00;;;1.80;;
51020;SDS011;38907;45.562;8.856;2022-08-26T16:43:43;2.22;;;1.83;;
51020;SDS011;38907;45.562;8.856;2022-08-26T16:48:46;4.20;;;1.88;;
51020;SDS011;38907;45.562;8.856;2022-08-26T16:53:49;7.40;;;1.95;;
51020;SDS011;38907;45.562;8.856;2022-08-26T16:58:54;3.28;;;2.00;;
51020;SDS011;38907;45.562;8.856;2022-08-26T17:03:56;2.22;;;1.73;;
51020;SDS011;38907;45.562;8.856;2022-08-26T17:08:59;3.03;;;1.92;;
51020;SDS011;38907;45.562;8.856;2022-08-26T17:14:03;6.65;;;1.70;;
51020;SDS011;38907;45.562;8.856;2022-08-26T17:19:06;5.68;;;2.00;;
51020;SDS011;38907;45.562;8.856;2022-08-26T17:24:10;1.95;;;1.73;;
51020;SDS011;38907;45.562;8.856;2022-08-26T17:29:14;7.22;;;1.92;;
51020;SDS011;38907;45.562;8.856;2022-08-26T17:34:16;3.75;;;1.90;;
51020;SDS011;38907;45.562;8.856;2022-08-26T17:39:19;2.92;;;1.67;;
51020;SDS011;38907;45.562;8.856;2022-08-26T17:44:23;16.80;;;2.20;;
51020;SDS011;38907;45.562;8.856;2022-08-26T17:49:26;3.88;;;2.05;;
51020;SDS011;38907;45.562;8.856;2022-08-26T17:54:29;2.50;;;1.60;;
51020;SDS011;38907;45.562;8.856;2022-08-26T17:59:33;5.53;;;2.00;;
51020;SDS011;38907;45.562;8.856;2022-08-26T18:04:36;3.40;;;1.98;;
51020;SDS011;38907;45.562;8.856;2022-08-26T18:09:40;2.72;;;1.80;;
51020;SDS011;38907;45.562;8.856;2022-08-26T18:14:45;5.25;;;2.25;;
51020;SDS011;38907;45.562;8.856;2022-08-26T18:19:48;6.55;;;2.20;;
51020;SDS011;38907;45.562;8.856;2022-08-26T18:24:51;4.20;;;1.75;;
51020;SDS011;38907;45.562;8.856;2022-08-26T18:29:57;5.53;;;1.88;;
51020;SDS011;38907;45.562;8.856;2022-08-26T18:35:01;4.35;;;1.90;;
51020;SDS011;38907;45.562;8.856;2022-08-26T18:40:05;2.75;;;1.65;;
51020;SDS011;38907;45.562;8.856;2022-08-26T18:45:12;6.63;;;1.90;;
51020;SDS011;38907;45.562;8.856;2022-08-26T18:50:19;3.42;;;1.85;;
51020;SDS011;38907;45.562;8.856;2022-08-26T18:55:23;3.08;;;1.80;;
51020;SDS011;38907;45.562;8.856;2022-08-26T19:00:29;4.93;;;1.50;;
51020;SDS011;38907;45.562;8.856;2022-08-26T19:05:34;5.13;;;1.67;;
51020;SDS011;38907;45.562;8.856;2022-08-26T19:10:39;2.13;;;1.58;;
51020;SDS011;38907;45.562;8.856;2022-08-26T19:15:45;19.85;;;2.30;;
51020;SDS011;38907;45.562;8.856;2022-08-26T19:20:49;6.82;;;2.00;;
51020;SDS011;38907;45.562;8.856;2022-08-26T19:25:53;2.25;;;1.70;;
51020;SDS011;38907;45.562;8.856;2022-08-26T19:30:59;3.20;;;1.77;;
51020;SDS011;38907;45.562;8.856;2022-08-26T19:36:04;3.25;;;1.83;;
51020;SDS011;38907;45.562;8.856;2022-08-26T19:41:09;5.28;;;1.70;;
51020;SDS011;38907;45.562;8.856;2022-08-26T19:46:17;4.43;;;1.88;;
51020;SDS011;38907;45.562;8.856;2022-08-26T19:51:25;2.20;;;2.00;;
51020;SDS011;38907;45.562;8.856;2022-08-26T19:56:29;2.78;;;1.70;;
51020;SDS011;38907;45.562;8.856;2022-08-26T20:01:35;3.63;;;1.80;;
51020;SDS011;38907;45.562;8.856;2022-08-26T20:06:38;7.03;;;2.20;;
51020;SDS011;38907;45.562;8.856;2022-08-26T20:11:42;4.13;;;1.92;;
51020;SDS011;38907;45.562;8.856;2022-08-26T20:16:47;3.22;;;2.05;;
51020;SDS011;38907;45.562;8.856;2022-08-26T20:21:50;2.25;;;1.83;;
51020;SDS011;38907;45.562;8.856;2022-08-26T20:26:54;6.82;;;2.08;;
51020;SDS011;38907;45.562;8.856;2022-08-26T20:32:00;2.13;;;1.90;;
51020;SDS011;38907;45.562;8.856;2022-08-26T20:37:05;2.28;;;1.75;;
51020;SDS011;38907;45.562;8.856;2022-08-26T20:42:09;8.30;;;1.98;;
51020;SDS011;38907;45.562;8.856;2022-08-26T20:47:15;2.30;;;1.98;;
51020;SDS011;38907;45.562;8.856;2022-08-26T20:52:19;2.58;;;1.60;;
51020;SDS011;38907;45.562;8.856;2022-08-26T20:57:22;2.85;;;1.50;;
51020;SDS011;38907;45.562;8.856;2022-08-26T21:02:28;1.77;;;1.58;;
51020;SDS011;38907;45.562;8.856;2022-08-26T21:07:32;1.67;;;1.52;;
51020;SDS011;38907;45.562;8.856;2022-08-26T21:12:35;3.35;;;1.58;;
51020;SDS011;38907;45.562;8.856;2022-08-26T21:17:41;4.43;;;1.83;;
51020;SDS011;38907;45.562;8.856;2022-08-26T21:22:44;7.90;;;1.80;;
51020;SDS011;38907;45.562;8.856;2022-08-26T21:27:48;1.80;;;1.52;;
51020;SDS011;38907;45.562;8.856;2022-08-26T21:32:53;3.15;;;1.60;;
51020;SDS011;38907;45.562;8.856;2022-08-26T21:37:59;6.13;;;1.55;;
51020;SDS011;38907;45.562;8.856;2022-08-26T21:43:02;3.38;;;1.80;;
51020;SDS011;38907;45.562;8.856;2022-08-26T21:48:08;1.63;;;1.50;;
51020;SDS011;38907;45.562;8.856;2022-08-26T21:53:11;2.47;;;1.60;;
51020;SDS011;38907;45.562;8.856;2022-08-26T21:58:15;4.75;;;1.50;;
51020;SDS011;38907;45.562;8.856;2022-08-26T22:03:20;1.55;;;1.45;;
51020;SDS011;38907;45.562;8.856;2022-08-26T22:08:24;3.92;;;1.63;;
51020;SDS011;38907;45.562;8.856;2022-08-26T22:13:29;3.30;;;1.83;;
51020;SDS011;38907;45.562;8.856;2022-08-26T22:18:37;1.90;;;1.67;;
51020;SDS011;38907;45.562;8.856;2022-08-26T22:23:45;2.63;;;1.65;;
51020;SDS011;38907;45.562;8.856;2022-08-26T22:28:48;2.50;;;1.70;;
51020;SDS011;38907;45.562;8.856;2022-08-26T22:33:52;1.98;;;1.73;;
51020;SDS011;38907;45.562;8.856;2022-08-26T22:38:55;2.08;;;1.75;;
51020;SDS011;38907;45.562;8.856;2022-08-26T22:43:58;2.08;;;1.77;;
51020;SDS011;38907;45.562;8.856;2022-08-26T22:49:03;2.85;;;1.90;;
51020;SDS011;38907;45.562;8.856;2022-08-26T22:54:06;1.85;;;1.70;;
51020;SDS011;38907;45.562;8.856;2022-08-26T22:59:09;10.32;;;2.38;;
51020;SDS011;38907;45.562;8.856;2022-08-26T23:04:14;20.25;;;3.70;;
51020;SDS011;38907;45.562;8.856;2022-08-26T23:09:17;27.15;;;3.63;;
51020;SDS011;38907;45.562;8.856;2022-08-26T23:14:20;16.67;;;2.83;;
51020;SDS011;38907;45.562;8.856;2022-08-26T23:19:25;6.22;;;2.13;;
51020;SDS011;38907;45.562;8.856;2022-08-26T23:24:28;5.75;;;1.95;;
51020;SDS011;38907;45.562;8.856;2022-08-26T23:29:31;5.90;;;2.10;;
51020;SDS011;38907;45.562;8.856;2022-08-26T23:34:36;4.00;;;2.00;;
51020;SDS011;38907;45.562;8.856;2022-08-26T23:40:00;2.05;;;1.83;;
51020;SDS011;38907;45.562;8.856;2022-08-26T23:45:05;2.33;;;2.08;;
51020;SDS011;38907;45.562;8.856;2022-08-26T23:50:11;2.67;;;1.98;;
51020;SDS011;38907;45.562;8.856;2022-08-26T23:55:14;2.10;;;1.90;;
